createdAt,value
2022-10-18T00:00:35.609Z,27.40
2022-10-18T00:03:02.025Z,24.15
2022-10-18T00:05:28.617Z,26.08
2022-10-18T00:07:55.189Z,29.65
2022-10-18T00:10:21.893Z,23.00
2022-10-18T00:12:48.347Z,20.40
2022-10-18T00:15:16.020Z,26.92
2022-10-18T00:17:42.750Z,24.75
2022-10-18T00:20:10.313Z,25.70
2022-10-18T00:22:38.770Z,18.98
2022-10-18T00:25:06.672Z,25.23
2022-10-18T00:27:33.422Z,25.27
2022-10-18T00:30:00.175Z,21.15
2022-10-18T00:32:27.007Z,25.17
2022-10-18T00:34:53.535Z,16.40
2022-10-18T00:37:20.444Z,23.55
2022-10-18T00:39:49.107Z,19.58
2022-10-18T00:42:19.892Z,14.43
2022-10-18T00:44:47.880Z,20.10
2022-10-18T00:47:16.342Z,30.98
2022-10-18T00:49:46.445Z,29.05
2022-10-18T00:52:23.251Z,16.42
2022-10-18T00:54:50.713Z,25.05
2022-10-18T00:57:17.688Z,19.52
2022-10-18T00:59:44.904Z,22.63
2022-10-18T01:02:11.610Z,18.00
2022-10-18T01:04:38.391Z,23.85
2022-10-18T01:07:11.400Z,23.00
2022-10-18T01:09:46.273Z,16.88
2022-10-18T01:12:50.665Z,16.38
2022-10-18T01:15:26.327Z,23.45
2022-10-18T01:18:05.792Z,23.55
2022-10-18T01:20:45.197Z,18.92
2022-10-18T01:23:23.744Z,20.25
2022-10-18T01:25:55.922Z,20.05
2022-10-18T01:28:34.587Z,24.10
2022-10-18T01:31:05.098Z,27.08
2022-10-18T01:33:34.582Z,17.65
2022-10-18T01:36:08.356Z,15.88
2022-10-18T01:38:36.906Z,16.80
2022-10-18T01:41:03.930Z,17.52
2022-10-18T01:43:31.048Z,21.50
2022-10-18T01:46:00.794Z,14.88
2022-10-18T01:48:27.244Z,22.30
2022-10-18T01:50:54.214Z,18.08
2022-10-18T01:53:50.893Z,13.05
2022-10-18T01:56:41.734Z,15.48
2022-10-18T01:59:28.086Z,18.63
2022-10-18T02:02:16.373Z,21.17
2022-10-18T02:04:55.917Z,15.43
2022-10-18T02:07:29.655Z,17.85
2022-10-18T02:10:03.775Z,12.57
2022-10-18T02:12:31.466Z,12.15
2022-10-18T02:15:02.960Z,13.52
2022-10-18T02:17:30.659Z,20.60
2022-10-18T02:19:57.345Z,20.35
2022-10-18T02:22:28.317Z,20.83
2022-10-18T02:24:56.427Z,19.45
2022-10-18T02:27:23.053Z,14.60
2022-10-18T02:29:49.678Z,18.17
2022-10-18T02:32:31.233Z,16.55
2022-10-18T02:35:18.922Z,20.08
2022-10-18T02:37:49.429Z,11.57
2022-10-18T02:40:19.478Z,20.02
2022-10-18T02:42:50.906Z,19.73
2022-10-18T02:45:17.788Z,15.93
2022-10-18T02:47:44.281Z,11.68
2022-10-18T02:50:18.879Z,25.05
2022-10-18T02:52:45.989Z,15.82
2022-10-18T02:55:12.530Z,13.65
2022-10-18T02:57:46.873Z,14.65
2022-10-18T03:00:14.157Z,15.98
2022-10-18T03:02:40.604Z,22.55
2022-10-18T03:05:09.594Z,25.98
2022-10-18T03:07:36.145Z,19.58
2022-10-18T03:10:03.090Z,20.52
2022-10-18T03:12:32.905Z,18.65
2022-10-18T03:14:59.317Z,14.45
2022-10-18T03:19:52.193Z,15.25
2022-10-18T03:22:18.722Z,21.70
2022-10-18T03:24:45.558Z,20.75
2022-10-18T03:27:12.091Z,21.40
2022-10-18T03:29:38.551Z,21.77
2022-10-18T03:32:05.172Z,12.65
2022-10-18T03:34:32.684Z,24.80
2022-10-18T03:37:02.091Z,12.18
2022-10-18T03:39:31.169Z,14.93
2022-10-18T03:41:57.626Z,17.65
2022-10-18T03:44:27.638Z,22.77
2022-10-18T03:46:54.048Z,20.77
2022-10-18T03:49:21.090Z,21.85
2022-10-18T03:51:47.569Z,17.05
2022-10-18T03:54:13.996Z,19.58
2022-10-18T03:56:40.476Z,15.95
2022-10-18T03:59:06.922Z,14.80
2022-10-18T04:01:33.362Z,20.08
2022-10-18T04:03:59.807Z,16.52
2022-10-18T04:06:26.229Z,17.02
2022-10-18T04:08:52.755Z,16.30
2022-10-18T04:11:19.265Z,16.90
2022-10-18T04:13:45.696Z,22.17
2022-10-18T04:16:12.166Z,16.55
2022-10-18T04:18:38.611Z,15.68
2022-10-18T04:21:05.116Z,21.55
2022-10-18T04:23:32.811Z,16.80
2022-10-18T04:26:05.951Z,22.25
2022-10-18T04:28:33.673Z,23.88
2022-10-18T04:31:00.223Z,24.17
2022-10-18T04:33:26.714Z,25.10
2022-10-18T04:35:57.716Z,15.82
2022-10-18T04:38:24.173Z,21.42
2022-10-18T04:40:50.694Z,14.63
2022-10-18T04:43:17.279Z,12.57
2022-10-18T04:45:46.980Z,26.60
2022-10-18T04:48:14.245Z,23.13
2022-10-18T04:50:40.732Z,26.20
2022-10-18T04:53:07.193Z,23.77
2022-10-18T04:55:33.630Z,21.77
2022-10-18T04:58:00.934Z,23.92
2022-10-18T05:00:27.348Z,26.27
2022-10-18T05:05:27.037Z,12.45
2022-10-18T05:07:59.684Z,14.45
2022-10-18T05:10:26.530Z,20.70
2022-10-18T05:12:52.973Z,15.10
2022-10-18T05:15:19.436Z,19.02
2022-10-18T05:17:46.243Z,14.05
2022-10-18T05:22:44.415Z,15.45
2022-10-18T05:25:10.901Z,27.40
2022-10-18T05:27:37.809Z,25.02
2022-10-18T05:30:05.770Z,14.50
2022-10-18T05:32:32.619Z,17.67
2022-10-18T05:35:02.234Z,23.05
2022-10-18T05:37:28.770Z,25.60
2022-10-18T05:39:55.317Z,28.80
2022-10-18T05:42:21.981Z,33.13
2022-10-18T05:44:49.149Z,22.38
2022-10-18T05:47:15.621Z,23.95
2022-10-18T05:49:42.426Z,19.73
2022-10-18T05:52:08.918Z,22.35
2022-10-18T05:54:35.385Z,28.70
2022-10-18T05:57:01.805Z,19.38
2022-10-18T05:59:28.256Z,14.60
2022-10-18T06:01:59.355Z,16.85
2022-10-18T06:04:26.092Z,21.35
2022-10-18T06:06:53.981Z,20.48
2022-10-18T06:09:20.464Z,20.52
2022-10-18T06:11:46.941Z,25.35
2022-10-18T06:14:14.400Z,14.27
2022-10-18T06:16:41.445Z,25.08
2022-10-18T06:19:07.875Z,16.80
2022-10-18T06:21:34.721Z,21.02
2022-10-18T06:24:01.177Z,15.48
2022-10-18T06:26:33.869Z,24.42
2022-10-18T06:31:27.221Z,13.25
2022-10-18T06:33:56.117Z,14.55
2022-10-18T06:36:22.799Z,16.35
2022-10-18T06:38:50.702Z,24.90
2022-10-18T06:41:20.495Z,19.27
2022-10-18T06:43:51.278Z,16.90
2022-10-18T06:46:17.784Z,16.27
2022-10-18T06:48:48.232Z,18.60
2022-10-18T06:51:15.370Z,19.35
2022-10-18T06:53:48.735Z,15.57
2022-10-18T06:56:25.953Z,16.90
2022-10-18T06:58:52.536Z,12.35
2022-10-18T07:01:22.960Z,14.30
2022-10-18T07:03:51.694Z,24.63
2022-10-18T07:06:19.894Z,19.77
2022-10-18T07:08:52.977Z,23.55
2022-10-18T07:11:25.077Z,24.55
2022-10-18T07:13:54.599Z,26.17
2022-10-18T07:16:21.400Z,21.23
2022-10-18T07:18:50.301Z,19.63
2022-10-18T07:21:20.282Z,15.73
2022-10-18T07:23:47.207Z,14.70
2022-10-18T07:26:25.243Z,18.10
2022-10-18T07:28:55.371Z,17.88
2022-10-18T07:31:28.151Z,17.80
2022-10-18T07:36:22.117Z,17.15
2022-10-18T07:38:49.496Z,21.13
2022-10-18T07:41:17.136Z,30.10
2022-10-18T07:43:48.400Z,21.67
2022-10-18T07:46:15.750Z,30.52
2022-10-18T07:48:45.654Z,22.00
2022-10-18T07:51:13.275Z,31.15
2022-10-18T07:53:39.796Z,25.20
2022-10-18T07:56:11.806Z,19.50
2022-10-18T07:58:38.281Z,19.65
2022-10-18T08:01:06.710Z,35.40
2022-10-18T08:03:33.654Z,28.15
2022-10-18T08:06:00.129Z,30.23
2022-10-18T08:08:28.386Z,24.58
2022-10-18T08:10:55.052Z,32.35
2022-10-18T08:13:25.302Z,32.75
2022-10-18T08:15:51.699Z,32.58
2022-10-18T08:18:18.123Z,21.75
2022-10-18T08:20:45.272Z,19.50
2022-10-18T08:23:14.665Z,26.63
2022-10-18T08:25:43.671Z,27.48
2022-10-18T08:28:13.892Z,31.67
2022-10-18T08:30:40.647Z,29.83
2022-10-18T08:33:11.702Z,28.55
2022-10-18T08:35:38.192Z,26.10
2022-10-18T08:38:04.728Z,31.58
2022-10-18T08:40:46.194Z,24.52
2022-10-18T08:43:24.784Z,30.35
2022-10-18T08:45:54.140Z,24.20
2022-10-18T08:48:25.995Z,29.42
2022-10-18T08:50:54.489Z,25.17
2022-10-18T08:53:29.553Z,33.15
2022-10-18T08:56:14.922Z,29.13
2022-10-18T08:58:44.126Z,32.88
2022-10-18T09:01:25.694Z,28.70
2022-10-18T09:04:28.266Z,33.60
2022-10-18T09:07:25.742Z,31.85
2022-10-18T09:10:21.827Z,29.55
2022-10-18T09:13:22.102Z,28.27
2022-10-18T09:16:02.631Z,21.17
2022-10-18T09:18:43.198Z,19.73
2022-10-18T09:21:21.157Z,21.05
2022-10-18T09:23:58.074Z,25.13
2022-10-18T09:26:25.143Z,27.38
2022-10-18T09:29:05.454Z,28.63
2022-10-18T09:31:48.547Z,24.95
2022-10-18T09:34:41.069Z,21.70
2022-10-18T09:37:17.836Z,22.52
2022-10-18T09:39:45.815Z,23.17
2022-10-18T09:42:26.715Z,18.98
2022-10-18T09:44:59.830Z,26.40
2022-10-18T09:47:34.084Z,27.30
2022-10-18T09:50:21.644Z,19.13
2022-10-18T09:53:18.599Z,21.40
2022-10-18T09:55:58.845Z,21.33
2022-10-18T09:58:30.073Z,21.52
2022-10-18T10:00:56.607Z,15.90
2022-10-18T10:03:23.437Z,20.50
2022-10-18T10:06:03.127Z,19.67
2022-10-18T10:08:34.142Z,15.63
2022-10-18T10:11:00.596Z,15.98
2022-10-18T10:13:27.918Z,22.13
2022-10-18T10:15:58.328Z,25.15
2022-10-18T10:18:43.759Z,16.15
2022-10-18T10:21:15.139Z,22.95
2022-10-18T10:23:47.034Z,19.92
2022-10-18T10:26:27.640Z,17.40
2022-10-18T10:28:54.252Z,18.90
2022-10-18T10:31:31.562Z,15.07
2022-10-18T10:34:00.380Z,25.25
2022-10-18T10:36:27.767Z,22.15
2022-10-18T10:39:18.688Z,17.63
2022-10-18T10:41:49.766Z,21.20
2022-10-18T10:44:28.048Z,15.95
2022-10-18T10:46:55.148Z,13.10
2022-10-18T10:49:40.084Z,12.48
2022-10-18T10:52:26.699Z,11.15
2022-10-18T10:55:33.785Z,8.98
2022-10-18T10:57:46.440Z,11.13
2022-10-18T11:00:43.185Z,10.80
2022-10-18T11:03:29.080Z,10.95
2022-10-18T11:05:58.055Z,8.85
2022-10-18T11:08:31.080Z,11.70
2022-10-18T11:11:03.229Z,10.50
2022-10-18T11:13:53.455Z,9.27
2022-10-18T11:16:47.214Z,9.10
2022-10-18T11:19:31.748Z,9.23
2022-10-18T11:21:59.766Z,14.10
2022-10-18T11:24:27.139Z,8.05
2022-10-18T11:27:06.046Z,7.93
2022-10-18T11:29:55.892Z,10.70
2022-10-18T11:32:47.958Z,11.38
2022-10-18T11:35:26.524Z,9.27
2022-10-18T11:38:22.200Z,11.40
2022-10-18T11:41:04.577Z,9.88
2022-10-18T11:44:01.652Z,10.85
2022-10-18T11:46:42.955Z,11.20
2022-10-18T11:49:28.216Z,10.93
2022-10-18T11:52:36.696Z,14.25
2022-10-18T11:55:03.084Z,14.63
2022-10-18T11:58:01.260Z,14.57
2022-10-18T12:00:47.030Z,12.38
2022-10-18T12:03:41.231Z,17.58
2022-10-18T12:06:15.410Z,15.00
2022-10-18T12:08:45.855Z,18.95
2022-10-18T12:11:19.636Z,19.48
2022-10-18T12:13:50.756Z,24.33
2022-10-18T12:16:28.896Z,21.33
2022-10-18T12:19:13.854Z,14.68
2022-10-18T12:21:40.711Z,22.23
2022-10-18T12:24:19.074Z,21.30
2022-10-18T12:26:48.600Z,20.52
2022-10-18T12:29:44.348Z,21.25
2022-10-18T12:32:19.269Z,16.40
2022-10-18T12:34:50.147Z,17.90
2022-10-18T12:37:37.719Z,18.55
2022-10-18T12:40:33.655Z,21.95
2022-10-18T12:43:03.415Z,24.95
2022-10-18T12:45:34.176Z,19.60
2022-10-18T12:48:05.731Z,16.85
2022-10-18T12:50:39.176Z,27.67
2022-10-18T12:53:21.275Z,23.20
2022-10-18T12:55:51.529Z,22.00
2022-10-18T12:58:22.948Z,20.80
2022-10-18T13:00:55.862Z,20.48
2022-10-18T13:03:24.955Z,22.63
2022-10-18T13:06:01.666Z,27.52
2022-10-18T13:08:30.675Z,30.60
2022-10-18T13:11:12.250Z,30.88
2022-10-18T13:14:15.629Z,21.88
2022-10-18T13:16:51.381Z,20.42
2022-10-18T13:19:47.217Z,27.25
2022-10-18T13:22:52.989Z,23.95
2022-10-18T13:25:25.158Z,19.60
2022-10-18T13:27:56.265Z,24.20
2022-10-18T13:30:41.981Z,24.10
2022-10-18T13:33:27.127Z,31.67
2022-10-18T13:36:01.060Z,29.98
2022-10-18T13:38:52.332Z,24.35
2022-10-18T13:41:34.326Z,29.38
2022-10-18T13:44:02.338Z,28.50
2022-10-18T13:46:34.655Z,31.23
2022-10-18T13:49:36.477Z,33.28
2022-10-18T13:52:34.400Z,24.58
2022-10-18T13:55:19.611Z,29.80
2022-10-18T13:58:10.107Z,22.50
2022-10-18T14:01:14.265Z,29.23
2022-10-18T14:04:02.682Z,24.42
2022-10-18T14:06:35.442Z,24.75
2022-10-18T14:09:13.915Z,22.90
2022-10-18T14:11:55.361Z,19.80
2022-10-18T14:14:33.968Z,30.50
2022-10-18T14:17:31.514Z,23.95
2022-10-18T14:20:13.129Z,20.83
2022-10-18T14:22:48.360Z,18.92
2022-10-18T14:25:28.529Z,28.77
2022-10-18T14:28:15.280Z,31.95
2022-10-18T14:30:59.886Z,30.90
2022-10-18T14:33:26.363Z,22.88
2022-10-18T14:36:00.579Z,27.67
2022-10-18T14:38:27.213Z,30.70
2022-10-18T14:41:14.249Z,31.02
2022-10-18T14:43:41.241Z,27.10
2022-10-18T14:46:31.175Z,32.08
2022-10-18T14:49:00.533Z,22.50
2022-10-18T14:51:29.280Z,25.95
2022-10-18T14:53:56.211Z,36.85
2022-10-18T14:56:27.082Z,25.60
2022-10-18T14:58:55.412Z,25.70
2022-10-18T15:01:28.166Z,37.35
2022-10-18T15:04:13.246Z,40.10
2022-10-18T15:06:44.438Z,30.23
2022-10-18T15:09:12.538Z,28.92
2022-10-18T15:11:41.329Z,34.72
2022-10-18T15:14:14.133Z,27.83
2022-10-18T15:16:40.972Z,24.85
2022-10-18T15:19:27.436Z,31.20
2022-10-18T15:22:30.754Z,37.13
2022-10-18T15:25:15.300Z,23.58
2022-10-18T15:27:45.131Z,25.98
2022-10-18T15:30:39.336Z,23.90
2022-10-18T15:33:10.171Z,24.90
2022-10-18T15:35:38.153Z,25.73
2022-10-18T15:38:15.209Z,21.67
2022-10-18T15:40:42.629Z,23.40
2022-10-18T15:43:24.997Z,21.77
2022-10-18T15:46:01.581Z,27.95
2022-10-18T15:48:35.337Z,36.33
2022-10-18T15:51:05.880Z,21.88
2022-10-18T15:53:50.437Z,28.27
2022-10-18T15:56:34.555Z,30.50
2022-10-18T15:59:04.944Z,28.77
2022-10-18T16:01:42.635Z,21.73
2022-10-18T16:04:20.895Z,19.02
2022-10-18T16:06:47.322Z,25.58
2022-10-18T16:09:17.048Z,23.48
2022-10-18T16:11:44.463Z,29.17
2022-10-18T16:14:10.939Z,25.35
2022-10-18T16:16:41.308Z,27.15
2022-10-18T16:19:08.059Z,32.15
2022-10-18T16:21:37.465Z,26.40
2022-10-18T16:24:11.780Z,22.00
2022-10-18T16:26:38.729Z,26.85
2022-10-18T16:29:05.424Z,24.90
2022-10-18T16:31:33.838Z,22.30
2022-10-18T16:34:00.553Z,27.83
2022-10-18T16:36:31.107Z,31.75
2022-10-18T16:39:00.828Z,21.33
2022-10-18T16:41:27.332Z,25.98
2022-10-18T16:43:54.377Z,31.25
2022-10-18T16:46:24.334Z,22.40
2022-10-18T16:48:51.357Z,31.73
2022-10-18T16:51:17.928Z,28.98
2022-10-18T16:53:44.369Z,24.55
2022-10-18T16:56:21.640Z,32.40
2022-10-18T16:58:48.438Z,23.77
2022-10-18T17:01:16.857Z,32.33
2022-10-18T17:03:43.721Z,27.40
2022-10-18T17:06:17.860Z,24.70
2022-10-18T17:08:44.566Z,22.88
2022-10-18T17:11:12.329Z,29.85
2022-10-18T17:13:38.999Z,26.77
2022-10-18T17:16:05.639Z,31.38
2022-10-18T17:18:32.485Z,27.60
2022-10-18T17:21:02.604Z,30.35
2022-10-18T17:23:29.818Z,26.75
2022-10-18T17:26:14.931Z,28.75
2022-10-18T17:28:42.894Z,31.92
2022-10-18T17:31:09.365Z,35.53
2022-10-18T17:33:35.938Z,31.30
2022-10-18T17:36:02.968Z,29.02
2022-10-18T17:38:29.360Z,27.15
2022-10-18T17:40:56.752Z,44.08
2022-10-18T17:43:23.153Z,30.40
2022-10-18T17:45:54.563Z,35.70
2022-10-18T17:48:21.246Z,37.45
2022-10-18T17:50:47.691Z,31.50
2022-10-18T17:53:14.284Z,33.25
2022-10-18T17:55:44.281Z,34.97
2022-10-18T17:58:10.777Z,31.80
2022-10-18T18:00:37.853Z,31.20
2022-10-18T18:03:04.428Z,24.38
2022-10-18T18:05:32.555Z,38.17
2022-10-18T18:08:02.944Z,47.95
2022-10-18T18:10:32.999Z,30.63
2022-10-18T18:12:59.585Z,35.70
2022-10-18T18:15:26.251Z,32.60
2022-10-18T18:17:57.025Z,28.85
2022-10-18T18:20:24.531Z,27.00
2022-10-18T18:22:51.369Z,31.77
2022-10-18T18:25:17.914Z,28.02
2022-10-18T18:27:44.407Z,36.53
2022-10-18T18:30:11.103Z,33.65
2022-10-18T18:32:37.615Z,42.88
2022-10-18T18:35:04.318Z,38.40
2022-10-18T18:37:30.860Z,41.05
2022-10-18T18:39:57.272Z,30.67
2022-10-18T18:42:23.724Z,27.98
2022-10-18T18:44:50.522Z,38.25
2022-10-18T18:49:51.949Z,33.58
2022-10-18T18:52:18.526Z,30.85
2022-10-18T18:54:45.155Z,27.45
2022-10-18T18:57:11.856Z,45.33
2022-10-18T18:59:38.342Z,25.73
2022-10-18T19:02:04.807Z,40.03
2022-10-18T19:04:31.340Z,42.13
2022-10-18T19:06:57.845Z,35.88
2022-10-18T19:09:26.380Z,40.25
2022-10-18T19:11:54.785Z,43.95
2022-10-18T19:14:25.763Z,29.00
2022-10-18T19:16:54.365Z,34.10
2022-10-18T19:19:22.928Z,36.45
2022-10-18T19:21:54.862Z,31.38
2022-10-18T19:24:23.512Z,31.10
2022-10-18T19:26:55.815Z,35.20
2022-10-18T19:29:33.486Z,20.25
2022-10-18T19:32:01.785Z,29.45
2022-10-18T19:34:30.736Z,25.77
2022-10-18T19:36:57.472Z,29.02
2022-10-18T19:39:32.087Z,30.15
2022-10-18T19:42:03.032Z,28.70
2022-10-18T19:44:31.515Z,37.03
2022-10-18T19:46:58.287Z,39.20
2022-10-18T19:49:24.955Z,30.58
2022-10-18T19:51:51.510Z,39.45
2022-10-18T19:54:18.141Z,37.30
2022-10-18T19:56:44.853Z,26.27
2022-10-18T19:59:15.595Z,22.52
2022-10-18T20:01:42.707Z,31.77
2022-10-18T20:04:10.135Z,28.75
2022-10-18T20:06:38.012Z,28.05
2022-10-18T20:09:06.074Z,28.75
2022-10-18T20:11:47.087Z,31.80
2022-10-18T20:14:13.464Z,26.10
2022-10-18T20:16:39.882Z,44.50
2022-10-18T20:19:09.619Z,35.60
2022-10-18T20:21:36.470Z,29.90
2022-10-18T20:24:09.598Z,26.67
2022-10-18T20:26:36.395Z,34.08
2022-10-18T20:29:03.639Z,36.08
2022-10-18T20:31:32.281Z,26.55
2022-10-18T20:34:01.352Z,24.15
2022-10-18T20:36:28.840Z,33.30
2022-10-18T20:38:55.489Z,28.75
2022-10-18T20:41:27.175Z,22.17
2022-10-18T20:43:55.607Z,27.70
2022-10-18T20:46:22.099Z,26.50
2022-10-18T20:48:52.924Z,33.50
2022-10-18T20:51:20.796Z,28.90
2022-10-18T20:53:47.595Z,35.92
2022-10-18T20:56:16.263Z,25.05
2022-10-18T20:58:44.022Z,32.30
2022-10-18T21:01:16.671Z,32.00
2022-10-18T21:03:48.000Z,28.67
2022-10-18T21:06:22.879Z,44.35
2022-10-18T21:08:54.270Z,30.65
2022-10-18T21:11:20.721Z,27.80
2022-10-18T21:13:54.472Z,27.55
2022-10-18T21:16:24.963Z,21.85
2022-10-18T21:18:51.465Z,22.70
2022-10-18T21:21:23.811Z,24.40
2022-10-18T21:23:51.314Z,32.10
2022-10-18T21:26:22.902Z,22.40
2022-10-18T21:28:50.528Z,32.17
2022-10-18T21:31:21.737Z,30.13
2022-10-18T21:33:53.308Z,35.55
2022-10-18T21:36:20.276Z,29.48
2022-10-18T21:38:46.787Z,30.40
2022-10-18T21:41:15.780Z,34.35
2022-10-18T21:43:44.688Z,31.35
2022-10-18T21:46:12.102Z,29.92
2022-10-18T21:48:39.144Z,26.40
2022-10-18T21:51:07.605Z,30.23
2022-10-18T21:53:34.704Z,30.00
2022-10-18T21:56:13.425Z,23.52
2022-10-18T21:58:40.997Z,31.92
2022-10-18T22:01:34.853Z,34.78
2022-10-18T22:04:03.162Z,38.22
2022-10-18T22:06:32.376Z,28.17
2022-10-18T22:09:01.459Z,21.73
2022-10-18T22:11:35.046Z,30.75
2022-10-18T22:14:01.593Z,32.72
2022-10-18T22:16:28.503Z,29.83
2022-10-18T22:18:59.906Z,38.92
2022-10-18T22:21:26.541Z,33.40
2022-10-18T22:23:57.833Z,35.40
2022-10-18T22:26:29.634Z,19.38
2022-10-18T22:29:19.893Z,27.55
2022-10-18T22:31:52.022Z,33.63
2022-10-18T22:34:26.157Z,33.47
2022-10-18T22:36:52.570Z,18.45
2022-10-18T22:39:19.185Z,26.63
2022-10-18T22:41:46.804Z,29.48
2022-10-18T22:44:14.455Z,23.90
2022-10-18T22:46:41.839Z,25.52
2022-10-18T22:49:08.413Z,31.00
2022-10-18T22:54:06.439Z,43.25
2022-10-18T22:56:32.981Z,24.73
2022-10-18T22:58:59.367Z,25.80
2022-10-18T23:01:29.053Z,21.92
2022-10-18T23:03:59.067Z,35.22
2022-10-18T23:06:34.482Z,26.33
2022-10-18T23:09:05.004Z,32.20
2022-10-18T23:11:32.452Z,24.02
2022-10-18T23:13:58.894Z,27.00
2022-10-18T23:16:25.840Z,37.80
2022-10-18T23:18:54.733Z,26.88
2022-10-18T23:21:23.707Z,29.25
2022-10-18T23:23:50.977Z,36.00
2022-10-18T23:26:20.005Z,27.35
2022-10-18T23:28:47.948Z,29.60
2022-10-18T23:31:20.003Z,27.85
2022-10-18T23:33:48.122Z,31.45
2022-10-18T23:36:14.901Z,32.15
2022-10-18T23:38:41.933Z,24.88
2022-10-18T23:41:10.046Z,29.77
2022-10-18T23:43:36.559Z,26.98
2022-10-18T23:46:04.658Z,37.90
2022-10-18T23:48:41.524Z,30.40
2022-10-18T23:51:08.775Z,30.35
2022-10-18T23:53:35.669Z,33.85
2022-10-18T23:56:04.937Z,37.83
2022-10-18T23:58:37.289Z,33.15
